createdAt,value
2023-01-09T00:01:31.907Z,14.60
2023-01-09T00:03:59.815Z,14.60
2023-01-09T00:06:27.858Z,14.60
2023-01-09T00:08:57.086Z,14.60
2023-01-09T00:11:25.027Z,14.60
2023-01-09T00:13:53.013Z,14.60
2023-01-09T00:16:21.018Z,14.60
2023-01-09T00:18:48.918Z,14.60
2023-01-09T00:21:17.734Z,14.60
2023-01-09T00:23:45.589Z,14.60
2023-01-09T00:26:17.961Z,14.50
2023-01-09T00:28:46.996Z,14.60
2023-01-09T00:31:15.815Z,14.60
2023-01-09T00:33:47.292Z,14.50
2023-01-09T00:36:15.283Z,14.60
2023-01-09T00:38:43.176Z,14.60
2023-01-09T00:41:17.874Z,14.50
2023-01-09T00:43:51.029Z,14.50
2023-01-09T00:46:22.127Z,14.50
2023-01-09T00:48:51.320Z,14.60
2023-01-09T00:51:21.695Z,14.50
2023-01-09T00:53:51.752Z,14.50
2023-01-09T00:56:23.022Z,14.50
2023-01-09T00:58:52.631Z,14.60
2023-01-09T01:01:20.607Z,14.60
2023-01-09T01:03:48.504Z,14.60
2023-01-09T01:06:34.187Z,14.60
2023-01-09T01:09:02.103Z,14.60
2023-01-09T01:11:33.307Z,14.50
2023-01-09T01:14:02.301Z,14.50
2023-01-09T01:16:30.241Z,14.60
2023-01-09T01:18:58.104Z,14.60
2023-01-09T01:21:26.047Z,14.60
2023-01-09T01:23:53.953Z,14.60
2023-01-09T01:26:21.838Z,14.60
2023-01-09T01:28:51.047Z,14.60
2023-01-09T01:31:20.199Z,14.60
2023-01-09T01:33:48.276Z,14.60
2023-01-09T01:36:17.514Z,14.60
2023-01-09T01:38:46.815Z,14.60
2023-01-09T01:41:29.200Z,14.60
2023-01-09T01:44:01.269Z,14.50
2023-01-09T01:46:31.221Z,14.50
2023-01-09T01:49:03.986Z,14.50
2023-01-09T01:51:38.265Z,14.50
2023-01-09T01:54:13.267Z,14.50
2023-01-09T01:56:47.384Z,14.50
2023-01-09T01:59:22.935Z,14.50
2023-01-09T02:01:55.452Z,14.50
2023-01-09T02:04:23.566Z,14.50
2023-01-09T02:06:55.234Z,14.50
2023-01-09T02:09:25.307Z,14.50
2023-01-09T02:11:57.272Z,14.50
2023-01-09T02:14:31.554Z,14.50
2023-01-09T02:17:14.178Z,14.50
2023-01-09T02:20:33.144Z,14.50
2023-01-09T02:23:35.707Z,14.50
2023-01-09T02:26:44.026Z,14.50
2023-01-09T02:29:51.268Z,14.40
2023-01-09T02:32:44.976Z,14.50
2023-01-09T02:35:31.056Z,14.50
2023-01-09T02:38:11.078Z,14.50
2023-01-09T02:40:47.876Z,14.50
2023-01-09T02:43:17.024Z,14.60
2023-01-09T02:45:44.918Z,14.60
2023-01-09T02:48:14.488Z,14.60
2023-01-09T02:50:52.134Z,14.60
2023-01-09T02:54:05.029Z,14.50
2023-01-09T02:56:54.521Z,14.50
2023-01-09T02:59:30.441Z,14.60
2023-01-09T03:02:36.353Z,14.60
2023-01-09T03:05:16.905Z,14.60
2023-01-09T03:07:54.604Z,14.60
2023-01-09T03:10:36.011Z,14.60
2023-01-09T03:13:04.632Z,14.50
2023-01-09T03:15:37.494Z,14.60
2023-01-09T03:18:10.724Z,14.60
2023-01-09T03:20:40.610Z,14.60
2023-01-09T03:23:09.897Z,14.70
2023-01-09T03:25:37.789Z,14.70
2023-01-09T03:28:08.829Z,14.70
2023-01-09T03:30:38.133Z,14.70
2023-01-09T03:33:06.132Z,14.70
2023-01-09T03:35:33.976Z,14.70
2023-01-09T03:38:03.172Z,14.70
2023-01-09T03:40:31.039Z,14.70
2023-01-09T03:42:58.920Z,14.70
2023-01-09T03:45:26.851Z,14.70
2023-01-09T03:47:54.815Z,14.80
2023-01-09T03:50:22.686Z,14.80
2023-01-09T03:52:50.632Z,14.80
2023-01-09T03:55:19.850Z,14.70
2023-01-09T03:57:47.743Z,14.80
2023-01-09T04:00:16.437Z,14.80
2023-01-09T04:02:44.271Z,14.80
2023-01-09T04:05:12.207Z,14.80
2023-01-09T04:07:40.227Z,14.80
2023-01-09T04:10:09.571Z,14.80
2023-01-09T04:12:38.832Z,14.80
2023-01-09T04:15:08.241Z,14.70
2023-01-09T04:17:36.154Z,14.80
2023-01-09T04:20:04.500Z,14.80
2023-01-09T04:22:32.392Z,14.80
2023-01-09T04:25:00.295Z,14.80
2023-01-09T04:27:28.361Z,14.70
2023-01-09T04:29:57.635Z,14.70
2023-01-09T04:32:27.570Z,14.80
2023-01-09T04:34:56.316Z,14.70
2023-01-09T04:37:25.485Z,14.80
2023-01-09T04:39:55.981Z,14.70
2023-01-09T04:42:25.153Z,14.70
2023-01-09T04:44:54.155Z,14.70
2023-01-09T04:47:23.733Z,14.70
2023-01-09T04:49:52.027Z,14.70
2023-01-09T04:52:19.892Z,14.70
2023-01-09T04:54:47.772Z,14.70
2023-01-09T04:57:15.641Z,14.70
2023-01-09T04:59:43.543Z,14.70
2023-01-09T05:02:11.947Z,14.70
2023-01-09T05:04:41.209Z,14.70
2023-01-09T05:07:09.203Z,14.70
2023-01-09T05:09:37.084Z,14.70
2023-01-09T05:12:05.573Z,14.70
2023-01-09T05:14:33.474Z,14.70
2023-01-09T05:17:01.391Z,14.70
2023-01-09T05:19:29.263Z,14.70
2023-01-09T05:21:58.470Z,14.70
2023-01-09T05:24:26.388Z,14.70
2023-01-09T05:26:54.305Z,14.70
2023-01-09T05:29:22.324Z,14.70
2023-01-09T05:31:50.259Z,14.70
2023-01-09T05:34:18.145Z,14.70
2023-01-09T05:36:46.018Z,14.70
2023-01-09T05:39:15.271Z,14.60
2023-01-09T05:41:43.165Z,14.70
2023-01-09T05:44:11.069Z,14.70
2023-01-09T05:46:39.037Z,14.70
2023-01-09T05:49:06.976Z,14.70
2023-01-09T05:51:35.154Z,14.70
2023-01-09T05:54:04.082Z,14.70
2023-01-09T05:56:33.286Z,14.60
2023-01-09T05:59:01.136Z,14.70
2023-01-09T06:01:29.095Z,14.70
2023-01-09T06:03:56.984Z,14.70
2023-01-09T06:06:25.900Z,14.70
2023-01-09T06:08:53.928Z,14.70
2023-01-09T06:11:21.869Z,14.70
2023-01-09T06:13:51.061Z,14.70
2023-01-09T06:16:19.009Z,14.70
2023-01-09T06:18:46.933Z,14.70
2023-01-09T06:21:14.889Z,14.60
2023-01-09T06:23:42.830Z,14.60
2023-01-09T06:26:10.772Z,14.60
2023-01-09T06:28:38.697Z,14.60
2023-01-09T06:31:08.360Z,14.60
2023-01-09T06:33:36.256Z,14.70
2023-01-09T06:36:04.584Z,14.60
2023-01-09T06:38:32.466Z,14.60
2023-01-09T06:41:00.405Z,14.60
2023-01-09T06:43:28.329Z,14.60
2023-01-09T06:45:56.887Z,14.60
2023-01-09T06:48:26.384Z,14.60
2023-01-09T06:50:55.287Z,14.60
2023-01-09T06:53:23.187Z,14.60
2023-01-09T06:55:51.283Z,14.60
2023-01-09T06:58:19.270Z,14.60
2023-01-09T07:00:49.254Z,14.60
2023-01-09T07:03:19.789Z,14.60
2023-01-09T07:05:50.482Z,14.60
2023-01-09T07:08:18.621Z,14.60
2023-01-09T07:10:46.771Z,14.60
2023-01-09T07:13:14.660Z,14.60
2023-01-09T07:15:42.604Z,14.60
2023-01-09T07:18:10.693Z,14.60
2023-01-09T07:20:41.307Z,14.60
2023-01-09T07:23:13.267Z,14.60
2023-01-09T07:25:42.837Z,14.60
2023-01-09T07:28:10.734Z,14.60
2023-01-09T07:30:38.616Z,14.60
2023-01-09T07:33:06.486Z,14.60
2023-01-09T07:35:34.398Z,14.60
2023-01-09T07:38:02.301Z,14.60
2023-01-09T07:40:31.613Z,14.60
2023-01-09T07:42:59.501Z,14.60
2023-01-09T07:45:27.393Z,14.60
2023-01-09T07:47:55.291Z,14.60
2023-01-09T07:50:23.203Z,14.60
2023-01-09T07:52:51.099Z,14.60
2023-01-09T07:55:18.974Z,14.60
2023-01-09T07:57:51.620Z,14.60
2023-01-09T08:00:21.535Z,14.60
2023-01-09T08:02:53.936Z,14.60
2023-01-09T08:05:22.356Z,14.60
2023-01-09T08:07:50.836Z,14.70
2023-01-09T08:10:20.100Z,14.70
2023-01-09T08:12:50.042Z,14.60
2023-01-09T08:15:18.454Z,14.70
2023-01-09T08:17:48.131Z,14.70
2023-01-09T08:20:18.643Z,14.60
2023-01-09T08:22:50.508Z,14.60
2023-01-09T08:25:19.011Z,14.70
2023-01-09T08:27:47.468Z,14.70
2023-01-09T08:30:18.223Z,14.70
2023-01-09T08:32:51.719Z,14.60
2023-01-09T08:35:20.728Z,14.60
2023-01-09T08:37:49.801Z,14.70
2023-01-09T08:40:19.195Z,14.70
2023-01-09T08:43:04.481Z,14.70
2023-01-09T08:45:51.728Z,14.70
2023-01-09T08:48:19.641Z,14.70
2023-01-09T08:50:47.663Z,14.70
2023-01-09T08:53:16.303Z,14.70
2023-01-09T08:55:44.439Z,14.70
2023-01-09T08:58:12.647Z,14.70
2023-01-09T09:00:42.150Z,14.70
2023-01-09T09:03:11.599Z,14.70
2023-01-09T09:05:39.689Z,14.70
2023-01-09T09:08:07.591Z,14.80
2023-01-09T09:10:35.554Z,14.80
2023-01-09T09:13:03.479Z,14.80
2023-01-09T09:15:31.583Z,14.80
2023-01-09T09:18:03.827Z,14.80
2023-01-09T09:20:35.052Z,14.80
2023-01-09T09:23:03.711Z,14.80
2023-01-09T09:25:32.156Z,14.80
2023-01-09T09:28:01.166Z,14.80
2023-01-09T09:30:29.270Z,14.80
2023-01-09T09:32:57.299Z,14.80
2023-01-09T09:35:28.412Z,14.80
2023-01-09T09:37:58.646Z,14.80
2023-01-09T09:40:48.270Z,14.80
2023-01-09T09:44:18.667Z,14.80
2023-01-09T09:46:59.247Z,14.80
2023-01-09T09:49:41.016Z,14.80
2023-01-09T09:52:21.873Z,14.80
2023-01-09T09:54:51.703Z,14.80
2023-01-09T09:57:31.783Z,14.80
2023-01-09T09:59:59.915Z,14.80
2023-01-09T10:02:32.945Z,14.80
2023-01-09T10:05:06.827Z,14.80
2023-01-09T10:07:44.491Z,14.80
2023-01-09T10:10:20.194Z,14.80
2023-01-09T10:12:55.727Z,14.80
2023-01-09T10:15:41.809Z,14.80
2023-01-09T10:18:22.595Z,14.90
2023-01-09T10:20:59.104Z,14.90
2023-01-09T10:23:57.253Z,14.80
2023-01-09T10:26:33.587Z,14.80
2023-01-09T10:29:23.405Z,14.80
2023-01-09T10:32:11.325Z,14.80
2023-01-09T10:34:57.459Z,14.80
2023-01-09T10:37:32.312Z,14.90
2023-01-09T10:40:08.484Z,14.90
2023-01-09T10:42:45.564Z,14.90
2023-01-09T10:45:21.623Z,14.80
2023-01-09T10:47:50.294Z,14.90
2023-01-09T10:50:24.528Z,14.90
2023-01-09T10:52:55.221Z,14.90
2023-01-09T10:55:38.761Z,14.90
2023-01-09T10:58:14.103Z,14.90
2023-01-09T11:00:43.681Z,14.90
2023-01-09T11:03:14.102Z,14.90
2023-01-09T11:05:42.744Z,14.90
2023-01-09T11:08:23.886Z,14.90
2023-01-09T11:10:56.105Z,14.90
2023-01-09T11:13:29.201Z,14.90
2023-01-09T11:16:09.179Z,14.90
2023-01-09T11:18:41.724Z,14.90
2023-01-09T11:21:30.973Z,14.90
2023-01-09T11:24:30.946Z,14.80
2023-01-09T11:27:25.181Z,14.80
2023-01-09T11:30:27.782Z,14.90
2023-01-09T11:32:58.444Z,14.90
2023-01-09T11:35:34.106Z,14.90
2023-01-09T11:38:17.528Z,14.90
2023-01-09T11:40:52.956Z,14.90
2023-01-09T11:43:32.622Z,14.90
2023-01-09T11:46:06.334Z,14.90
2023-01-09T11:48:38.945Z,14.90
2023-01-09T11:51:20.511Z,14.90
2023-01-09T11:54:02.772Z,14.90
2023-01-09T11:56:31.407Z,15.00
2023-01-09T11:59:01.578Z,15.00
2023-01-09T12:02:06.664Z,14.90
2023-01-09T12:04:41.938Z,15.00
2023-01-09T12:07:39.917Z,14.90
2023-01-09T12:10:34.587Z,14.90
2023-01-09T12:13:20.064Z,14.90
2023-01-09T12:16:06.426Z,14.90
2023-01-09T12:18:55.445Z,14.90
2023-01-09T12:21:35.395Z,14.90
2023-01-09T12:24:49.519Z,15.00
2023-01-09T12:27:36.905Z,14.90
2023-01-09T12:30:26.172Z,14.90
2023-01-09T12:33:19.325Z,15.00
2023-01-09T12:36:07.325Z,15.00
2023-01-09T12:38:48.161Z,15.00
2023-01-09T12:41:55.904Z,15.00
2023-01-09T12:44:49.393Z,15.00
2023-01-09T12:47:46.561Z,15.00
2023-01-09T12:50:58.686Z,15.00
2023-01-09T12:53:32.127Z,15.00
2023-01-09T12:56:07.667Z,15.00
2023-01-09T12:58:45.459Z,15.00
2023-01-09T13:01:21.908Z,15.00
2023-01-09T13:04:10.543Z,15.00
2023-01-09T13:06:46.752Z,15.10
2023-01-09T13:09:25.851Z,15.10
2023-01-09T13:12:05.551Z,15.10
2023-01-09T13:14:51.929Z,15.10
2023-01-09T13:17:26.539Z,15.10
2023-01-09T13:19:54.720Z,15.10
2023-01-09T13:22:28.710Z,15.10
2023-01-09T13:25:21.362Z,15.10
2023-01-09T13:27:57.399Z,15.10
2023-01-09T13:31:01.076Z,15.10
2023-01-09T13:33:33.272Z,15.20
2023-01-09T13:36:03.480Z,15.20
2023-01-09T13:38:39.226Z,15.20
2023-01-09T13:41:31.855Z,15.20
2023-01-09T13:44:02.892Z,15.20
2023-01-09T13:46:38.921Z,15.20
2023-01-09T13:49:08.779Z,15.20
2023-01-09T13:51:57.990Z,15.20
2023-01-09T13:55:23.610Z,15.10
2023-01-09T13:58:22.628Z,15.10
2023-01-09T14:00:58.959Z,15.20
2023-01-09T14:03:32.854Z,15.20
2023-01-09T14:06:20.332Z,15.20
2023-01-09T14:08:51.653Z,15.20
2023-01-09T14:11:27.332Z,15.20
2023-01-09T14:14:15.683Z,15.20
2023-01-09T14:16:45.317Z,15.20
2023-01-09T14:19:37.504Z,15.20
2023-01-09T14:22:07.985Z,15.20
2023-01-09T14:24:46.326Z,15.20
2023-01-09T14:28:08.278Z,15.20
2023-01-09T14:31:00.005Z,15.20
2023-01-09T14:33:29.907Z,15.20
2023-01-09T14:36:12.187Z,15.20
2023-01-09T14:38:46.789Z,15.20
2023-01-09T14:41:40.134Z,15.20
2023-01-09T14:44:25.927Z,15.20
2023-01-09T14:46:59.034Z,15.20
2023-01-09T14:49:38.328Z,15.20
2023-01-09T14:52:16.464Z,15.20
2023-01-09T14:54:47.624Z,15.20
2023-01-09T14:57:27.064Z,15.20
2023-01-09T15:00:04.151Z,15.20
2023-01-09T15:02:37.916Z,15.20
2023-01-09T15:05:09.474Z,15.20
2023-01-09T15:07:44.376Z,15.20
2023-01-09T15:10:20.524Z,15.20
2023-01-09T15:12:53.367Z,15.20
2023-01-09T15:15:23.414Z,15.20
2023-01-09T15:18:04.432Z,15.20
2023-01-09T15:20:35.048Z,15.20
2023-01-09T15:23:04.227Z,15.20
2023-01-09T15:25:39.743Z,15.20
2023-01-09T15:28:29.103Z,15.10
2023-01-09T15:31:03.700Z,15.20
2023-01-09T15:33:34.675Z,15.10
2023-01-09T15:36:09.016Z,15.10
2023-01-09T15:38:37.652Z,15.20
2023-01-09T15:41:10.687Z,15.10
2023-01-09T15:43:44.700Z,15.10
2023-01-09T15:46:16.528Z,15.10
2023-01-09T15:48:45.940Z,15.10
2023-01-09T15:51:18.333Z,15.10
2023-01-09T15:53:50.164Z,15.10
2023-01-09T15:56:24.123Z,15.10
2023-01-09T15:58:53.286Z,15.10
2023-01-09T16:01:31.135Z,15.00
2023-01-09T16:04:09.092Z,15.00
2023-01-09T16:06:45.340Z,15.00
2023-01-09T16:09:21.573Z,15.00
2023-01-09T16:11:53.130Z,15.00
2023-01-09T16:14:24.598Z,15.00
2023-01-09T16:16:55.210Z,15.00
2023-01-09T16:19:50.197Z,14.90
2023-01-09T16:22:23.085Z,14.90
2023-01-09T16:24:53.861Z,14.90
2023-01-09T16:27:28.604Z,14.90
2023-01-09T16:29:59.429Z,14.90
2023-01-09T16:32:31.152Z,14.90
2023-01-09T16:35:05.584Z,14.90
2023-01-09T16:37:34.637Z,14.90
2023-01-09T16:40:29.729Z,14.80
2023-01-09T16:43:03.748Z,14.80
2023-01-09T16:45:35.955Z,14.70
2023-01-09T16:48:13.067Z,14.80
2023-01-09T16:50:43.090Z,14.80
2023-01-09T16:53:17.062Z,14.70
2023-01-09T16:55:45.650Z,14.80
2023-01-09T16:58:18.617Z,14.70
2023-01-09T17:00:48.770Z,14.70
2023-01-09T17:03:19.193Z,14.70
2023-01-09T17:05:51.123Z,14.70
2023-01-09T17:08:23.489Z,14.70
2023-01-09T17:10:52.774Z,14.70
2023-01-09T17:13:20.738Z,14.70
2023-01-09T17:15:49.443Z,14.70
2023-01-09T17:18:20.138Z,14.60
2023-01-09T17:20:52.952Z,14.60
2023-01-09T17:23:22.431Z,14.60
2023-01-09T17:26:11.702Z,14.60
2023-01-09T17:28:44.454Z,14.60
2023-01-09T17:31:13.125Z,14.60
2023-01-09T17:33:42.209Z,14.50
2023-01-09T17:36:23.273Z,14.50
2023-01-09T17:38:54.778Z,14.50
2023-01-09T17:41:24.216Z,14.50
2023-01-09T17:43:52.937Z,14.50
2023-01-09T17:46:28.292Z,14.50
2023-01-09T17:48:56.425Z,14.50
2023-01-09T17:51:25.759Z,14.50
2023-01-09T17:53:54.149Z,14.50
2023-01-09T17:56:25.580Z,14.50
2023-01-09T17:58:54.689Z,14.50
2023-01-09T18:01:23.102Z,14.50
2023-01-09T18:03:51.172Z,14.50
2023-01-09T18:06:23.094Z,14.50
2023-01-09T18:08:52.593Z,14.50
2023-01-09T18:11:22.716Z,14.50
2023-01-09T18:13:54.495Z,14.50
2023-01-09T18:16:25.417Z,14.40
2023-01-09T18:18:54.791Z,14.50
2023-01-09T18:21:25.192Z,14.40
2023-01-09T18:23:54.874Z,14.40
2023-01-09T18:26:23.756Z,14.50
2023-01-09T18:28:55.920Z,14.40
2023-01-09T18:31:25.522Z,14.40
2023-01-09T18:33:56.402Z,14.40
2023-01-09T18:36:29.369Z,14.40
2023-01-09T18:39:01.000Z,14.40
2023-01-09T18:41:30.196Z,14.40
2023-01-09T18:44:00.377Z,14.40
2023-01-09T18:46:31.860Z,14.40
2023-01-09T18:49:02.430Z,14.40
2023-01-09T18:51:31.853Z,14.40
2023-01-09T18:54:01.256Z,14.40
2023-01-09T18:56:29.348Z,14.40
2023-01-09T18:58:59.173Z,14.40
2023-01-09T19:01:28.893Z,14.40
2023-01-09T19:03:57.815Z,14.40
2023-01-09T19:06:26.087Z,14.40
2023-01-09T19:08:54.957Z,14.40
2023-01-09T19:11:24.206Z,14.40
2023-01-09T19:13:52.187Z,14.40
2023-01-09T19:16:20.594Z,14.40
2023-01-09T19:18:48.605Z,14.40
2023-01-09T19:21:20.630Z,14.40
2023-01-09T19:23:49.872Z,14.40
2023-01-09T19:26:21.293Z,14.40
2023-01-09T19:28:51.887Z,14.40
2023-01-09T19:31:19.894Z,14.40
2023-01-09T19:33:47.883Z,14.40
2023-01-09T19:36:15.817Z,14.40
2023-01-09T19:38:44.473Z,14.40
2023-01-09T19:41:15.199Z,14.40
2023-01-09T19:43:43.450Z,14.40
2023-01-09T19:46:15.554Z,14.40
2023-01-09T19:48:43.642Z,14.40
2023-01-09T19:51:13.939Z,14.40
2023-01-09T19:53:42.534Z,14.40
2023-01-09T19:56:17.405Z,14.30
2023-01-09T19:58:51.535Z,14.30
2023-01-09T20:01:24.614Z,14.30
2023-01-09T20:03:54.604Z,14.40
2023-01-09T20:06:25.135Z,14.40
2023-01-09T20:08:56.084Z,14.30
2023-01-09T20:11:26.436Z,14.30
2023-01-09T20:13:55.443Z,14.40
2023-01-09T20:16:29.800Z,14.30
2023-01-09T20:18:59.139Z,14.40
2023-01-09T20:21:29.261Z,14.30
2023-01-09T20:24:00.183Z,14.30
2023-01-09T20:26:29.202Z,14.40
2023-01-09T20:28:57.918Z,14.40
2023-01-09T20:31:31.129Z,14.30
2023-01-09T20:34:00.463Z,14.30
2023-01-09T20:36:30.215Z,14.40
2023-01-09T20:39:00.807Z,14.30
2023-01-09T20:41:30.876Z,14.40
2023-01-09T20:44:01.565Z,14.30
2023-01-09T20:46:34.680Z,14.30
2023-01-09T20:49:03.486Z,14.40
2023-01-09T20:51:31.967Z,14.30
2023-01-09T20:53:59.962Z,14.30
2023-01-09T20:56:29.718Z,14.30
2023-01-09T20:58:59.084Z,14.30
2023-01-09T21:01:28.844Z,14.30
2023-01-09T21:03:59.732Z,14.30
2023-01-09T21:06:28.910Z,14.30
2023-01-09T21:08:56.849Z,14.30
2023-01-09T21:11:25.001Z,14.30
2023-01-09T21:13:53.534Z,14.30
2023-01-09T21:16:24.933Z,14.30
2023-01-09T21:18:54.721Z,14.30
2023-01-09T21:21:27.263Z,14.30
2023-01-09T21:23:58.391Z,14.30
2023-01-09T21:26:30.665Z,14.20
2023-01-09T21:29:02.003Z,14.30
2023-01-09T21:31:34.757Z,14.20
2023-01-09T21:34:05.499Z,14.20
2023-01-09T21:36:36.324Z,14.20
2023-01-09T21:39:08.174Z,14.20
2023-01-09T21:41:54.391Z,14.20
2023-01-09T21:44:40.094Z,14.20
2023-01-09T21:47:08.013Z,14.20
2023-01-09T21:49:36.138Z,14.20
2023-01-09T21:52:05.814Z,14.20
2023-01-09T21:54:34.934Z,14.20
2023-01-09T21:57:04.034Z,14.20
2023-01-09T21:59:32.201Z,14.20
2023-01-09T22:02:00.565Z,14.20
2023-01-09T22:04:30.417Z,14.20
2023-01-09T22:06:58.421Z,14.20
2023-01-09T22:09:28.026Z,14.20
2023-01-09T22:11:56.039Z,14.20
2023-01-09T22:14:24.319Z,14.20
2023-01-09T22:16:52.240Z,14.20
2023-01-09T22:19:20.383Z,14.20
2023-01-09T22:21:49.587Z,14.20
2023-01-09T22:24:21.634Z,14.10
2023-01-09T22:26:50.823Z,14.10
2023-01-09T22:29:18.753Z,14.10
2023-01-09T22:31:46.733Z,14.10
2023-01-09T22:34:16.900Z,14.10
2023-01-09T22:36:45.650Z,14.10
2023-01-09T22:39:16.605Z,14.10
2023-01-09T22:41:44.934Z,14.10
2023-01-09T22:44:14.555Z,14.10
2023-01-09T22:46:42.463Z,14.10
2023-01-09T22:49:12.020Z,14.10
2023-01-09T22:51:39.952Z,14.10
2023-01-09T22:54:08.087Z,14.10
2023-01-09T22:56:36.157Z,14.10
2023-01-09T22:59:04.259Z,14.10
2023-01-09T23:01:33.500Z,14.10
2023-01-09T23:04:02.684Z,14.10
2023-01-09T23:06:30.599Z,14.10
2023-01-09T23:08:58.625Z,14.10
2023-01-09T23:11:52.623Z,14.00
2023-01-09T23:14:22.332Z,14.00
2023-01-09T23:16:51.658Z,14.00
2023-01-09T23:19:20.604Z,14.00
2023-01-09T23:21:48.571Z,14.00
2023-01-09T23:24:18.293Z,14.00
2023-01-09T23:26:47.614Z,14.00
2023-01-09T23:29:15.698Z,14.00
2023-01-09T23:31:43.587Z,14.00
2023-01-09T23:34:16.784Z,13.90
2023-01-09T23:36:44.902Z,13.90
2023-01-09T23:39:13.059Z,13.90
2023-01-09T23:41:59.039Z,13.90
2023-01-09T23:44:27.385Z,13.90
2023-01-09T23:46:55.369Z,13.90
2023-01-09T23:49:24.645Z,13.90
2023-01-09T23:51:52.509Z,13.90
2023-01-09T23:54:20.493Z,13.90
2023-01-09T23:56:48.341Z,13.90
2023-01-09T23:59:17.903Z,13.90
